Terminal Aerodrome Forecast
Issued by NWS

Home | Current Version | Previous Version | Text Only | Print | Product List | Glossary On
Versions: 1 2 3 4 5 6 7 8 9 10 11 12 13 14 15 16 17 18 19 20 21 22 23 24
847
FTUS43 KDLH 170637 AAA
TAFBRD
TAF AMD
KBRD 170637Z 1707/1806 04010KT 5SM RA SCT007 OVC015
      TEMPO 1707/1711 1SM RA BR OVC005
     FM171200 36006KT 4SM SHRA OVC008
     FM171600 34009KT P6SM VCSH OVC008
     FM171800 33010KT P6SM VCSH OVC010
     FM172300 34010KT P6SM SCT040
     FM180200 33005KT P6SM FEW090=

USA.gov is the U.S. government's official web portal to all federal, state and local government web resources and services.